sensor_id;sensor_type;location;lat;lon;timestamp;P1;durP1;ratioP1;P2;durP2;ratioP2
46653;SDS011;38960;51.074;17.004;2023-09-19T00:01:39;4.75;;;2.17;;
46653;SDS011;38960;51.074;17.004;2023-09-19T00:04:06;4.43;;;2.40;;
46653;SDS011;38960;51.074;17.004;2023-09-19T00:06:44;7.60;;;2.28;;
46653;SDS011;38960;51.074;17.004;2023-09-19T00:09:09;3.83;;;2.00;;
46653;SDS011;38960;51.074;17.004;2023-09-19T00:11:36;5.80;;;2.05;;
46653;SDS011;38960;51.074;17.004;2023-09-19T00:14:02;7.82;;;2.22;;
46653;SDS011;38960;51.074;17.004;2023-09-19T00:16:29;9.93;;;1.98;;
46653;SDS011;38960;51.074;17.004;2023-09-19T00:18:55;7.70;;;2.17;;
46653;SDS011;38960;51.074;17.004;2023-09-19T00:21:20;6.47;;;1.80;;
46653;SDS011;38960;51.074;17.004;2023-09-19T00:23:47;8.07;;;1.98;;
46653;SDS011;38960;51.074;17.004;2023-09-19T00:26:12;7.38;;;2.03;;
46653;SDS011;38960;51.074;17.004;2023-09-19T00:28:40;7.50;;;2.15;;
46653;SDS011;38960;51.074;17.004;2023-09-19T00:31:07;4.95;;;1.85;;
46653;SDS011;38960;51.074;17.004;2023-09-19T00:33:33;6.82;;;2.08;;
46653;SDS011;38960;51.074;17.004;2023-09-19T00:35:59;6.10;;;1.85;;
46653;SDS011;38960;51.074;17.004;2023-09-19T00:38:27;4.47;;;1.98;;
46653;SDS011;38960;51.074;17.004;2023-09-19T00:40:53;6.22;;;2.33;;
46653;SDS011;38960;51.074;17.004;2023-09-19T00:43:20;6.25;;;1.83;;
46653;SDS011;38960;51.074;17.004;2023-09-19T00:45:49;4.90;;;2.25;;
46653;SDS011;38960;51.074;17.004;2023-09-19T00:50:44;4.38;;;1.73;;
46653;SDS011;38960;51.074;17.004;2023-09-19T00:53:14;3.40;;;2.20;;
46653;SDS011;38960;51.074;17.004;2023-09-19T00:55:43;5.03;;;1.90;;
46653;SDS011;38960;51.074;17.004;2023-09-19T00:58:10;5.10;;;1.63;;
46653;SDS011;38960;51.074;17.004;2023-09-19T01:00:36;8.13;;;1.92;;
46653;SDS011;38960;51.074;17.004;2023-09-19T01:03:02;4.25;;;1.70;;
46653;SDS011;38960;51.074;17.004;2023-09-19T01:05:28;3.20;;;1.67;;
46653;SDS011;38960;51.074;17.004;2023-09-19T01:07:55;6.25;;;1.58;;
46653;SDS011;38960;51.074;17.004;2023-09-19T01:10:21;5.57;;;1.63;;
46653;SDS011;38960;51.074;17.004;2023-09-19T01:20:53;2.50;;;1.58;;
46653;SDS011;38960;51.074;17.004;2023-09-19T01:26:42;5.25;;;2.22;;
46653;SDS011;38960;51.074;17.004;2023-09-19T01:29:26;3.55;;;1.60;;
46653;SDS011;38960;51.074;17.004;2023-09-19T01:32:01;4.07;;;1.73;;
46653;SDS011;38960;51.074;17.004;2023-09-19T01:34:48;4.20;;;1.75;;
46653;SDS011;38960;51.074;17.004;2023-09-19T01:37:29;12.70;;;1.90;;
46653;SDS011;38960;51.074;17.004;2023-09-19T01:39:57;7.13;;;2.00;;
46653;SDS011;38960;51.074;17.004;2023-09-19T01:53:27;6.75;;;1.85;;
46653;SDS011;38960;51.074;17.004;2023-09-19T01:55:55;9.35;;;2.30;;
46653;SDS011;38960;51.074;17.004;2023-09-19T01:58:37;5.32;;;1.85;;
46653;SDS011;38960;51.074;17.004;2023-09-19T02:01:07;3.20;;;1.90;;
46653;SDS011;38960;51.074;17.004;2023-09-19T02:03:34;6.13;;;1.60;;
46653;SDS011;38960;51.074;17.004;2023-09-19T02:06:00;6.85;;;2.10;;
46653;SDS011;38960;51.074;17.004;2023-09-19T02:08:26;5.90;;;2.00;;
46653;SDS011;38960;51.074;17.004;2023-09-19T02:10:51;6.78;;;1.98;;
46653;SDS011;38960;51.074;17.004;2023-09-19T02:13:18;5.32;;;1.83;;
46653;SDS011;38960;51.074;17.004;2023-09-19T02:15:44;6.05;;;1.83;;
46653;SDS011;38960;51.074;17.004;2023-09-19T02:18:10;9.90;;;2.00;;
46653;SDS011;38960;51.074;17.004;2023-09-19T02:20:43;6.80;;;2.17;;
46653;SDS011;38960;51.074;17.004;2023-09-19T02:23:09;6.00;;;2.13;;
46653;SDS011;38960;51.074;17.004;2023-09-19T02:25:35;3.60;;;1.85;;
46653;SDS011;38960;51.074;17.004;2023-09-19T02:28:01;6.97;;;1.80;;
46653;SDS011;38960;51.074;17.004;2023-09-19T02:30:28;4.75;;;2.20;;
46653;SDS011;38960;51.074;17.004;2023-09-19T02:32:55;3.08;;;2.00;;
46653;SDS011;38960;51.074;17.004;2023-09-19T02:35:21;5.93;;;2.58;;
46653;SDS011;38960;51.074;17.004;2023-09-19T02:37:46;6.13;;;2.50;;
46653;SDS011;38960;51.074;17.004;2023-09-19T02:40:12;5.20;;;2.17;;
46653;SDS011;38960;51.074;17.004;2023-09-19T02:42:45;6.70;;;2.20;;
46653;SDS011;38960;51.074;17.004;2023-09-19T02:45:12;5.40;;;1.88;;
46653;SDS011;38960;51.074;17.004;2023-09-19T02:47:39;5.63;;;2.05;;
46653;SDS011;38960;51.074;17.004;2023-09-19T02:50:05;5.90;;;2.50;;
46653;SDS011;38960;51.074;17.004;2023-09-19T02:52:31;6.47;;;2.25;;
46653;SDS011;38960;51.074;17.004;2023-09-19T02:54:56;4.60;;;2.20;;
46653;SDS011;38960;51.074;17.004;2023-09-19T02:57:22;3.78;;;2.03;;
46653;SDS011;38960;51.074;17.004;2023-09-19T02:59:49;4.38;;;2.15;;
46653;SDS011;38960;51.074;17.004;2023-09-19T03:02:15;3.08;;;1.85;;
46653;SDS011;38960;51.074;17.004;2023-09-19T03:04:41;5.18;;;2.67;;
46653;SDS011;38960;51.074;17.004;2023-09-19T03:07:07;7.55;;;2.20;;
46653;SDS011;38960;51.074;17.004;2023-09-19T03:09:32;6.88;;;2.60;;
46653;SDS011;38960;51.074;17.004;2023-09-19T03:11:58;4.60;;;2.38;;
46653;SDS011;38960;51.074;17.004;2023-09-19T03:14:25;3.28;;;1.95;;
46653;SDS011;38960;51.074;17.004;2023-09-19T03:16:56;7.53;;;2.30;;
46653;SDS011;38960;51.074;17.004;2023-09-19T03:19:21;6.28;;;2.25;;
46653;SDS011;38960;51.074;17.004;2023-09-19T03:21:49;6.95;;;3.00;;
46653;SDS011;38960;51.074;17.004;2023-09-19T03:24:16;7.22;;;2.22;;
46653;SDS011;38960;51.074;17.004;2023-09-19T03:26:41;6.20;;;2.13;;
46653;SDS011;38960;51.074;17.004;2023-09-19T03:29:07;6.50;;;2.22;;
46653;SDS011;38960;51.074;17.004;2023-09-19T03:31:33;10.70;;;3.28;;
46653;SDS011;38960;51.074;17.004;2023-09-19T03:34:02;6.55;;;2.70;;
46653;SDS011;38960;51.074;17.004;2023-09-19T03:36:29;4.30;;;1.92;;
46653;SDS011;38960;51.074;17.004;2023-09-19T03:38:55;4.07;;;2.33;;
46653;SDS011;38960;51.074;17.004;2023-09-19T03:41:21;5.07;;;2.65;;
46653;SDS011;38960;51.074;17.004;2023-09-19T03:43:47;7.53;;;5.10;;
46653;SDS011;38960;51.074;17.004;2023-09-19T03:46:12;9.40;;;4.80;;
46653;SDS011;38960;51.074;17.004;2023-09-19T03:48:40;10.57;;;3.80;;
46653;SDS011;38960;51.074;17.004;2023-09-19T03:51:06;6.13;;;4.25;;
46653;SDS011;38960;51.074;17.004;2023-09-19T03:53:32;5.95;;;3.67;;
46653;SDS011;38960;51.074;17.004;2023-09-19T03:55:57;6.25;;;2.70;;
46653;SDS011;38960;51.074;17.004;2023-09-19T03:58:23;11.98;;;4.30;;
46653;SDS011;38960;51.074;17.004;2023-09-19T04:00:48;8.30;;;4.63;;
46653;SDS011;38960;51.074;17.004;2023-09-19T04:03:15;9.23;;;4.70;;
46653;SDS011;38960;51.074;17.004;2023-09-19T04:05:46;14.35;;;6.43;;
46653;SDS011;38960;51.074;17.004;2023-09-19T04:08:13;9.32;;;5.47;;
46653;SDS011;38960;51.074;17.004;2023-09-19T04:10:42;13.90;;;8.02;;
46653;SDS011;38960;51.074;17.004;2023-09-19T04:13:09;10.70;;;5.60;;
46653;SDS011;38960;51.074;17.004;2023-09-19T04:15:34;6.65;;;3.70;;
46653;SDS011;38960;51.074;17.004;2023-09-19T04:18:00;7.00;;;3.17;;
46653;SDS011;38960;51.074;17.004;2023-09-19T04:20:25;9.23;;;3.65;;
46653;SDS011;38960;51.074;17.004;2023-09-19T04:22:51;5.05;;;2.70;;
46653;SDS011;38960;51.074;17.004;2023-09-19T04:25:17;17.70;;;2.72;;
46653;SDS011;38960;51.074;17.004;2023-09-19T04:27:44;5.75;;;2.10;;
46653;SDS011;38960;51.074;17.004;2023-09-19T04:30:09;6.10;;;2.15;;
46653;SDS011;38960;51.074;17.004;2023-09-19T04:32:36;4.63;;;2.20;;
46653;SDS011;38960;51.074;17.004;2023-09-19T04:35:05;9.32;;;3.65;;
46653;SDS011;38960;51.074;17.004;2023-09-19T04:37:35;7.63;;;2.92;;
46653;SDS011;38960;51.074;17.004;2023-09-19T04:40:05;9.63;;;4.28;;
46653;SDS011;38960;51.074;17.004;2023-09-19T04:42:39;57.78;;;24.50;;
46653;SDS011;38960;51.074;17.004;2023-09-19T04:45:05;79.85;;;41.05;;
46653;SDS011;38960;51.074;17.004;2023-09-19T04:47:32;82.40;;;43.90;;
46653;SDS011;38960;51.074;17.004;2023-09-19T04:49:57;44.83;;;25.25;;
46653;SDS011;38960;51.074;17.004;2023-09-19T04:52:24;20.63;;;11.57;;
46653;SDS011;38960;51.074;17.004;2023-09-19T04:54:50;9.20;;;5.70;;
46653;SDS011;38960;51.074;17.004;2023-09-19T04:57:15;9.00;;;3.65;;
46653;SDS011;38960;51.074;17.004;2023-09-19T04:59:41;5.68;;;3.83;;
46653;SDS011;38960;51.074;17.004;2023-09-19T05:02:06;8.30;;;4.63;;
46653;SDS011;38960;51.074;17.004;2023-09-19T05:04:33;14.73;;;6.60;;
46653;SDS011;38960;51.074;17.004;2023-09-19T05:06:59;14.85;;;6.03;;
46653;SDS011;38960;51.074;17.004;2023-09-19T05:09:26;9.27;;;4.05;;
46653;SDS011;38960;51.074;17.004;2023-09-19T05:11:51;8.25;;;2.58;;
46653;SDS011;38960;51.074;17.004;2023-09-19T05:14:18;6.65;;;3.28;;
46653;SDS011;38960;51.074;17.004;2023-09-19T05:16:45;10.60;;;3.38;;
46653;SDS011;38960;51.074;17.004;2023-09-19T05:19:10;4.57;;;2.30;;
46653;SDS011;38960;51.074;17.004;2023-09-19T05:21:37;9.65;;;3.05;;
46653;SDS011;38960;51.074;17.004;2023-09-19T05:24:06;8.48;;;2.63;;
46653;SDS011;38960;51.074;17.004;2023-09-19T05:26:32;6.55;;;2.88;;
46653;SDS011;38960;51.074;17.004;2023-09-19T05:28:58;5.68;;;2.88;;
46653;SDS011;38960;51.074;17.004;2023-09-19T05:31:23;8.55;;;3.00;;
46653;SDS011;38960;51.074;17.004;2023-09-19T05:33:50;6.03;;;3.00;;
46653;SDS011;38960;51.074;17.004;2023-09-19T05:36:18;6.72;;;2.70;;
46653;SDS011;38960;51.074;17.004;2023-09-19T05:38:43;7.82;;;2.97;;
46653;SDS011;38960;51.074;17.004;2023-09-19T05:41:09;8.43;;;2.70;;
46653;SDS011;38960;51.074;17.004;2023-09-19T05:43:39;5.65;;;2.53;;
46653;SDS011;38960;51.074;17.004;2023-09-19T05:46:06;6.90;;;2.28;;
46653;SDS011;38960;51.074;17.004;2023-09-19T05:48:33;4.55;;;2.58;;
46653;SDS011;38960;51.074;17.004;2023-09-19T05:50:59;8.27;;;4.50;;
46653;SDS011;38960;51.074;17.004;2023-09-19T05:53:26;10.93;;;6.95;;
46653;SDS011;38960;51.074;17.004;2023-09-19T05:55:51;12.00;;;7.30;;
46653;SDS011;38960;51.074;17.004;2023-09-19T05:58:18;7.85;;;5.72;;
46653;SDS011;38960;51.074;17.004;2023-09-19T06:00:45;11.77;;;4.97;;
46653;SDS011;38960;51.074;17.004;2023-09-19T06:03:12;9.05;;;4.28;;
46653;SDS011;38960;51.074;17.004;2023-09-19T06:05:38;9.25;;;4.28;;
46653;SDS011;38960;51.074;17.004;2023-09-19T06:08:06;7.63;;;3.80;;
46653;SDS011;38960;51.074;17.004;2023-09-19T06:10:33;10.35;;;4.28;;
46653;SDS011;38960;51.074;17.004;2023-09-19T06:13:00;6.40;;;2.83;;
46653;SDS011;38960;51.074;17.004;2023-09-19T06:15:29;6.07;;;2.80;;
46653;SDS011;38960;51.074;17.004;2023-09-19T06:17:57;4.28;;;2.50;;
46653;SDS011;38960;51.074;17.004;2023-09-19T06:20:25;10.18;;;3.22;;
46653;SDS011;38960;51.074;17.004;2023-09-19T06:22:51;7.93;;;2.85;;
46653;SDS011;38960;51.074;17.004;2023-09-19T06:27:21;7.47;;;2.78;;
46653;SDS011;38960;51.074;17.004;2023-09-19T06:29:47;11.88;;;3.38;;
46653;SDS011;38960;51.074;17.004;2023-09-19T06:32:12;8.40;;;2.80;;
46653;SDS011;38960;51.074;17.004;2023-09-19T06:34:38;5.65;;;2.50;;
46653;SDS011;38960;51.074;17.004;2023-09-19T06:37:04;5.55;;;2.42;;
46653;SDS011;38960;51.074;17.004;2023-09-19T06:39:31;5.05;;;2.38;;
46653;SDS011;38960;51.074;17.004;2023-09-19T06:41:57;5.75;;;2.85;;
46653;SDS011;38960;51.074;17.004;2023-09-19T06:44:23;6.03;;;3.15;;
46653;SDS011;38960;51.074;17.004;2023-09-19T06:46:50;13.70;;;3.70;;
46653;SDS011;38960;51.074;17.004;2023-09-19T06:49:17;9.05;;;3.40;;
46653;SDS011;38960;51.074;17.004;2023-09-19T06:51:42;8.20;;;3.15;;
46653;SDS011;38960;51.074;17.004;2023-09-19T06:54:09;7.65;;;2.13;;
46653;SDS011;38960;51.074;17.004;2023-09-19T06:56:35;7.93;;;2.22;;
46653;SDS011;38960;51.074;17.004;2023-09-19T06:59:00;9.80;;;3.40;;
46653;SDS011;38960;51.074;17.004;2023-09-19T07:01:27;10.80;;;3.47;;
46653;SDS011;38960;51.074;17.004;2023-09-19T07:03:53;7.00;;;2.90;;
46653;SDS011;38960;51.074;17.004;2023-09-19T07:06:19;5.28;;;2.45;;
46653;SDS011;38960;51.074;17.004;2023-09-19T07:08:45;4.50;;;2.10;;
46653;SDS011;38960;51.074;17.004;2023-09-19T07:11:10;8.70;;;2.22;;
46653;SDS011;38960;51.074;17.004;2023-09-19T07:13:37;9.73;;;2.30;;
46653;SDS011;38960;51.074;17.004;2023-09-19T07:16:03;8.65;;;1.92;;
46653;SDS011;38960;51.074;17.004;2023-09-19T07:18:29;6.80;;;2.28;;
46653;SDS011;38960;51.074;17.004;2023-09-19T07:20:58;7.22;;;2.60;;
46653;SDS011;38960;51.074;17.004;2023-09-19T07:23:30;6.50;;;1.98;;
46653;SDS011;38960;51.074;17.004;2023-09-19T07:26:00;4.82;;;1.67;;
46653;SDS011;38960;51.074;17.004;2023-09-19T07:28:26;6.25;;;1.90;;
46653;SDS011;38960;51.074;17.004;2023-09-19T07:30:53;8.30;;;1.98;;
46653;SDS011;38960;51.074;17.004;2023-09-19T07:33:19;5.90;;;1.75;;
46653;SDS011;38960;51.074;17.004;2023-09-19T07:35:45;9.98;;;1.98;;
46653;SDS011;38960;51.074;17.004;2023-09-19T07:38:11;5.30;;;1.92;;
46653;SDS011;38960;51.074;17.004;2023-09-19T07:40:37;4.15;;;1.40;;
46653;SDS011;38960;51.074;17.004;2023-09-19T07:43:02;5.15;;;1.90;;
46653;SDS011;38960;51.074;17.004;2023-09-19T07:45:30;4.53;;;1.50;;
46653;SDS011;38960;51.074;17.004;2023-09-19T07:47:56;6.28;;;2.03;;
46653;SDS011;38960;51.074;17.004;2023-09-19T07:50:21;3.33;;;1.50;;
46653;SDS011;38960;51.074;17.004;2023-09-19T07:52:48;6.10;;;2.05;;
46653;SDS011;38960;51.074;17.004;2023-09-19T07:55:16;8.43;;;3.75;;
46653;SDS011;38960;51.074;17.004;2023-09-19T07:57:45;5.65;;;2.08;;
46653;SDS011;38960;51.074;17.004;2023-09-19T08:00:12;5.85;;;1.75;;
46653;SDS011;38960;51.074;17.004;2023-09-19T08:02:38;6.88;;;2.03;;
46653;SDS011;38960;51.074;17.004;2023-09-19T08:05:05;6.85;;;2.80;;
46653;SDS011;38960;51.074;17.004;2023-09-19T08:07:34;4.85;;;2.70;;
46653;SDS011;38960;51.074;17.004;2023-09-19T08:10:02;4.88;;;3.25;;
46653;SDS011;38960;51.074;17.004;2023-09-19T08:12:42;7.22;;;3.20;;
46653;SDS011;38960;51.074;17.004;2023-09-19T08:15:15;5.90;;;2.45;;
46653;SDS011;38960;51.074;17.004;2023-09-19T08:17:42;4.38;;;2.47;;
46653;SDS011;38960;51.074;17.004;2023-09-19T08:20:08;7.82;;;2.08;;
46653;SDS011;38960;51.074;17.004;2023-09-19T08:22:42;7.13;;;1.45;;
46653;SDS011;38960;51.074;17.004;2023-09-19T08:25:19;4.47;;;2.10;;
46653;SDS011;38960;51.074;17.004;2023-09-19T08:27:46;6.20;;;2.72;;
46653;SDS011;38960;51.074;17.004;2023-09-19T08:30:16;5.10;;;2.60;;
46653;SDS011;38960;51.074;17.004;2023-09-19T08:32:49;6.65;;;2.25;;
46653;SDS011;38960;51.074;17.004;2023-09-19T08:35:23;4.93;;;1.88;;
46653;SDS011;38960;51.074;17.004;2023-09-19T08:37:48;10.88;;;3.72;;
46653;SDS011;38960;51.074;17.004;2023-09-19T08:40:14;8.05;;;2.13;;
46653;SDS011;38960;51.074;17.004;2023-09-19T08:45:22;12.30;;;1.85;;
46653;SDS011;38960;51.074;17.004;2023-09-19T08:53:36;3.10;;;1.65;;
46653;SDS011;38960;51.074;17.004;2023-09-19T08:56:11;22.90;;;6.27;;
46653;SDS011;38960;51.074;17.004;2023-09-19T08:59:00;7.45;;;2.88;;
46653;SDS011;38960;51.074;17.004;2023-09-19T09:01:33;5.78;;;2.50;;
46653;SDS011;38960;51.074;17.004;2023-09-19T09:03:58;8.15;;;2.25;;
46653;SDS011;38960;51.074;17.004;2023-09-19T09:06:25;7.93;;;1.73;;
46653;SDS011;38960;51.074;17.004;2023-09-19T09:08:51;10.80;;;2.08;;
46653;SDS011;38960;51.074;17.004;2023-09-19T09:11:20;2.55;;;1.50;;
46653;SDS011;38960;51.074;17.004;2023-09-19T09:13:46;7.85;;;2.42;;
46653;SDS011;38960;51.074;17.004;2023-09-19T09:19:19;5.03;;;2.20;;
46653;SDS011;38960;51.074;17.004;2023-09-19T09:22:21;12.98;;;3.53;;
46653;SDS011;38960;51.074;17.004;2023-09-19T09:25:13;7.90;;;2.30;;
46653;SDS011;38960;51.074;17.004;2023-09-19T09:28:19;7.78;;;2.05;;
46653;SDS011;38960;51.074;17.004;2023-09-19T09:31:21;5.10;;;1.90;;
46653;SDS011;38960;51.074;17.004;2023-09-19T09:33:54;5.53;;;1.80;;
46653;SDS011;38960;51.074;17.004;2023-09-19T09:36:39;4.90;;;2.00;;
46653;SDS011;38960;51.074;17.004;2023-09-19T09:39:06;10.43;;;1.88;;
46653;SDS011;38960;51.074;17.004;2023-09-19T09:41:50;5.28;;;1.92;;
46653;SDS011;38960;51.074;17.004;2023-09-19T09:44:16;3.28;;;1.60;;
46653;SDS011;38960;51.074;17.004;2023-09-19T09:46:43;4.70;;;1.63;;
46653;SDS011;38960;51.074;17.004;2023-09-19T09:49:27;5.63;;;1.60;;
46653;SDS011;38960;51.074;17.004;2023-09-19T09:52:02;9.52;;;2.10;;
46653;SDS011;38960;51.074;17.004;2023-09-19T09:57:02;2.55;;;1.88;;
46653;SDS011;38960;51.074;17.004;2023-09-19T09:59:52;4.32;;;2.13;;
46653;SDS011;38960;51.074;17.004;2023-09-19T10:02:26;10.60;;;2.85;;
46653;SDS011;38960;51.074;17.004;2023-09-19T10:04:54;6.97;;;2.20;;
46653;SDS011;38960;51.074;17.004;2023-09-19T10:07:25;8.82;;;2.38;;
46653;SDS011;38960;51.074;17.004;2023-09-19T10:13:40;7.43;;;2.05;;
46653;SDS011;38960;51.074;17.004;2023-09-19T10:16:07;5.28;;;1.30;;
46653;SDS011;38960;51.074;17.004;2023-09-19T10:18:35;7.28;;;2.30;;
46653;SDS011;38960;51.074;17.004;2023-09-19T10:21:04;2.80;;;1.52;;
46653;SDS011;38960;51.074;17.004;2023-09-19T10:23:31;13.38;;;2.80;;
46653;SDS011;38960;51.074;17.004;2023-09-19T10:25:59;6.28;;;2.22;;
46653;SDS011;38960;51.074;17.004;2023-09-19T10:28:27;6.68;;;2.00;;
46653;SDS011;38960;51.074;17.004;2023-09-19T10:30:54;4.85;;;1.75;;
46653;SDS011;38960;51.074;17.004;2023-09-19T10:33:22;4.88;;;1.50;;
46653;SDS011;38960;51.074;17.004;2023-09-19T10:35:51;4.20;;;1.70;;
46653;SDS011;38960;51.074;17.004;2023-09-19T10:38:22;3.03;;;1.55;;
46653;SDS011;38960;51.074;17.004;2023-09-19T10:40:51;3.17;;;1.60;;
46653;SDS011;38960;51.074;17.004;2023-09-19T10:43:19;4.27;;;2.23;;
46653;SDS011;38960;51.074;17.004;2023-09-19T10:45:46;2.50;;;1.60;;
46653;SDS011;38960;51.074;17.004;2023-09-19T10:48:18;4.00;;;1.25;;
46653;SDS011;38960;51.074;17.004;2023-09-19T10:51:31;2.97;;;1.60;;
46653;SDS011;38960;51.074;17.004;2023-09-19T10:56:09;7.85;;;1.90;;
46653;SDS011;38960;51.074;17.004;2023-09-19T10:58:42;5.30;;;1.63;;
46653;SDS011;38960;51.074;17.004;2023-09-19T11:01:10;2.60;;;1.30;;
46653;SDS011;38960;51.074;17.004;2023-09-19T11:03:40;22.80;;;2.25;;
46653;SDS011;38960;51.074;17.004;2023-09-19T11:06:10;3.30;;;1.50;;
46653;SDS011;38960;51.074;17.004;2023-09-19T11:30:40;1.98;;;1.15;;
46653;SDS011;38960;51.074;17.004;2023-09-19T11:33:21;3.88;;;1.10;;
46653;SDS011;38960;51.074;17.004;2023-09-19T11:43:46;2.20;;;1.40;;
46653;SDS011;38960;51.074;17.004;2023-09-19T11:46:12;2.58;;;1.23;;
46653;SDS011;38960;51.074;17.004;2023-09-19T11:48:41;3.45;;;1.25;;
46653;SDS011;38960;51.074;17.004;2023-09-19T11:51:27;2.60;;;1.48;;
46653;SDS011;38960;51.074;17.004;2023-09-19T11:53:54;2.25;;;1.45;;
46653;SDS011;38960;51.074;17.004;2023-09-19T11:56:22;2.92;;;1.23;;
46653;SDS011;38960;51.074;17.004;2023-09-19T11:58:56;3.15;;;1.38;;
46653;SDS011;38960;51.074;17.004;2023-09-19T12:01:30;2.40;;;1.25;;
46653;SDS011;38960;51.074;17.004;2023-09-19T12:03:58;1.98;;;1.17;;
46653;SDS011;38960;51.074;17.004;2023-09-19T12:06:24;1.17;;;1.00;;
46653;SDS011;38960;51.074;17.004;2023-09-19T12:08:51;2.15;;;1.27;;
46653;SDS011;38960;51.074;17.004;2023-09-19T12:11:19;2.78;;;1.30;;
46653;SDS011;38960;51.074;17.004;2023-09-19T12:13:48;1.50;;;1.10;;
46653;SDS011;38960;51.074;17.004;2023-09-19T12:16:18;2.78;;;1.17;;
46653;SDS011;38960;51.074;17.004;2023-09-19T12:18:48;5.82;;;2.55;;
46653;SDS011;38960;51.074;17.004;2023-09-19T12:21:31;1.98;;;1.10;;
46653;SDS011;38960;51.074;17.004;2023-09-19T12:23:57;2.20;;;1.20;;
46653;SDS011;38960;51.074;17.004;2023-09-19T12:26:30;1.50;;;1.00;;
46653;SDS011;38960;51.074;17.004;2023-09-19T12:29:02;2.58;;;1.20;;
46653;SDS011;38960;51.074;17.004;2023-09-19T12:31:30;2.45;;;1.30;;
46653;SDS011;38960;51.074;17.004;2023-09-19T12:34:01;1.92;;;1.08;;
46653;SDS011;38960;51.074;17.004;2023-09-19T12:36:27;1.60;;;1.02;;
46653;SDS011;38960;51.074;17.004;2023-09-19T12:38:58;2.63;;;1.25;;
46653;SDS011;38960;51.074;17.004;2023-09-19T12:41:24;1.98;;;1.05;;
46653;SDS011;38960;51.074;17.004;2023-09-19T12:43:51;2.03;;;1.15;;
46653;SDS011;38960;51.074;17.004;2023-09-19T12:46:22;2.55;;;1.27;;
46653;SDS011;38960;51.074;17.004;2023-09-19T12:51:48;2.75;;;1.48;;
46653;SDS011;38960;51.074;17.004;2023-09-19T12:54:14;1.77;;;1.25;;
46653;SDS011;38960;51.074;17.004;2023-09-19T12:56:42;4.18;;;1.20;;
46653;SDS011;38960;51.074;17.004;2023-09-19T12:59:11;4.03;;;1.35;;
46653;SDS011;38960;51.074;17.004;2023-09-19T13:01:39;19.38;;;2.15;;
46653;SDS011;38960;51.074;17.004;2023-09-19T13:04:12;3.35;;;0.98;;
46653;SDS011;38960;51.074;17.004;2023-09-19T13:06:40;3.47;;;1.20;;
46653;SDS011;38960;51.074;17.004;2023-09-19T13:09:08;2.83;;;1.05;;
46653;SDS011;38960;51.074;17.004;2023-09-19T13:11:36;3.97;;;1.75;;
46653;SDS011;38960;51.074;17.004;2023-09-19T13:14:17;2.60;;;1.20;;
46653;SDS011;38960;51.074;17.004;2023-09-19T13:22:04;6.32;;;1.42;;
46653;SDS011;38960;51.074;17.004;2023-09-19T13:24:31;2.05;;;0.98;;
46653;SDS011;38960;51.074;17.004;2023-09-19T13:27:00;2.88;;;1.48;;
46653;SDS011;38960;51.074;17.004;2023-09-19T13:29:25;2.35;;;1.25;;
46653;SDS011;38960;51.074;17.004;2023-09-19T13:31:52;2.00;;;1.17;;
46653;SDS011;38960;51.074;17.004;2023-09-19T13:34:20;6.05;;;1.40;;
46653;SDS011;38960;51.074;17.004;2023-09-19T13:36:46;4.05;;;1.30;;
46653;SDS011;38960;51.074;17.004;2023-09-19T13:39:13;2.60;;;1.45;;
46653;SDS011;38960;51.074;17.004;2023-09-19T13:41:41;2.53;;;1.00;;
46653;SDS011;38960;51.074;17.004;2023-09-19T13:44:08;2.08;;;1.05;;
46653;SDS011;38960;51.074;17.004;2023-09-19T13:46:36;2.40;;;1.40;;
46653;SDS011;38960;51.074;17.004;2023-09-19T13:49:02;4.05;;;1.40;;
46653;SDS011;38960;51.074;17.004;2023-09-19T13:51:31;1.92;;;1.20;;
46653;SDS011;38960;51.074;17.004;2023-09-19T13:53:57;2.08;;;1.23;;
46653;SDS011;38960;51.074;17.004;2023-09-19T13:56:25;2.08;;;1.42;;
46653;SDS011;38960;51.074;17.004;2023-09-19T13:58:53;4.53;;;1.25;;
46653;SDS011;38960;51.074;17.004;2023-09-19T14:01:19;1.77;;;1.08;;
46653;SDS011;38960;51.074;17.004;2023-09-19T14:03:45;1.35;;;1.10;;
46653;SDS011;38960;51.074;17.004;2023-09-19T14:06:17;2.05;;;1.10;;
46653;SDS011;38960;51.074;17.004;2023-09-19T14:08:43;1.63;;;1.17;;
46653;SDS011;38960;51.074;17.004;2023-09-19T14:11:13;2.58;;;1.02;;
46653;SDS011;38960;51.074;17.004;2023-09-19T14:13:39;2.08;;;1.23;;
46653;SDS011;38960;51.074;17.004;2023-09-19T14:16:08;3.33;;;1.90;;
46653;SDS011;38960;51.074;17.004;2023-09-19T14:18:34;1.75;;;1.20;;
46653;SDS011;38960;51.074;17.004;2023-09-19T14:21:06;2.25;;;1.48;;
46653;SDS011;38960;51.074;17.004;2023-09-19T14:23:37;2.13;;;1.20;;
46653;SDS011;38960;51.074;17.004;2023-09-19T14:26:03;2.90;;;1.65;;
46653;SDS011;38960;51.074;17.004;2023-09-19T14:28:30;2.50;;;1.40;;
46653;SDS011;38960;51.074;17.004;2023-09-19T14:30:56;2.05;;;1.30;;
46653;SDS011;38960;51.074;17.004;2023-09-19T14:33:21;1.65;;;1.25;;
46653;SDS011;38960;51.074;17.004;2023-09-19T14:35:47;2.42;;;1.20;;
46653;SDS011;38960;51.074;17.004;2023-09-19T14:38:12;2.58;;;1.17;;
46653;SDS011;38960;51.074;17.004;2023-09-19T14:40:39;1.52;;;1.20;;
46653;SDS011;38960;51.074;17.004;2023-09-19T14:43:04;4.15;;;1.08;;
46653;SDS011;38960;51.074;17.004;2023-09-19T14:45:30;3.83;;;1.42;;
46653;SDS011;38960;51.074;17.004;2023-09-19T14:47:56;2.72;;;1.70;;
46653;SDS011;38960;51.074;17.004;2023-09-19T14:50:22;3.67;;;1.30;;
46653;SDS011;38960;51.074;17.004;2023-09-19T14:52:48;2.15;;;1.30;;
46653;SDS011;38960;51.074;17.004;2023-09-19T14:55:16;1.70;;;1.30;;
46653;SDS011;38960;51.074;17.004;2023-09-19T14:57:42;2.08;;;1.20;;
46653;SDS011;38960;51.074;17.004;2023-09-19T15:00:10;1.30;;;1.00;;
46653;SDS011;38960;51.074;17.004;2023-09-19T15:02:37;5.20;;;1.10;;
46653;SDS011;38960;51.074;17.004;2023-09-19T15:05:05;2.95;;;1.30;;
46653;SDS011;38960;51.074;17.004;2023-09-19T15:07:33;3.55;;;1.10;;
46653;SDS011;38960;51.074;17.004;2023-09-19T15:10:02;4.22;;;1.65;;
46653;SDS011;38960;51.074;17.004;2023-09-19T15:12:32;2.55;;;1.08;;
46653;SDS011;38960;51.074;17.004;2023-09-19T15:14:58;1.75;;;0.98;;
46653;SDS011;38960;51.074;17.004;2023-09-19T15:17:23;1.60;;;1.10;;
46653;SDS011;38960;51.074;17.004;2023-09-19T15:19:50;5.15;;;1.40;;
46653;SDS011;38960;51.074;17.004;2023-09-19T15:22:16;1.48;;;1.20;;
46653;SDS011;38960;51.074;17.004;2023-09-19T15:24:41;1.75;;;1.20;;
46653;SDS011;38960;51.074;17.004;2023-09-19T15:27:07;2.03;;;1.10;;
46653;SDS011;38960;51.074;17.004;2023-09-19T15:29:32;1.38;;;1.00;;
46653;SDS011;38960;51.074;17.004;2023-09-19T15:31:58;7.97;;;1.80;;
46653;SDS011;38960;51.074;17.004;2023-09-19T15:34:27;3.75;;;1.23;;
46653;SDS011;38960;51.074;17.004;2023-09-19T15:36:53;3.63;;;1.75;;
46653;SDS011;38960;51.074;17.004;2023-09-19T15:39:19;3.28;;;1.30;;
46653;SDS011;38960;51.074;17.004;2023-09-19T15:41:47;5.60;;;2.10;;
46653;SDS011;38960;51.074;17.004;2023-09-19T15:44:17;7.30;;;1.60;;
46653;SDS011;38960;51.074;17.004;2023-09-19T15:46:44;2.75;;;1.52;;
46653;SDS011;38960;51.074;17.004;2023-09-19T15:49:10;11.65;;;2.10;;
46653;SDS011;38960;51.074;17.004;2023-09-19T15:51:36;7.72;;;1.65;;
46653;SDS011;38960;51.074;17.004;2023-09-19T15:54:06;2.83;;;1.70;;
46653;SDS011;38960;51.074;17.004;2023-09-19T15:56:36;9.18;;;2.17;;
46653;SDS011;38960;51.074;17.004;2023-09-19T15:59:01;4.30;;;2.00;;
46653;SDS011;38960;51.074;17.004;2023-09-19T16:01:27;6.15;;;2.00;;
46653;SDS011;38960;51.074;17.004;2023-09-19T16:03:53;3.20;;;1.77;;
46653;SDS011;38960;51.074;17.004;2023-09-19T16:06:24;7.90;;;2.15;;